Weather at Karankut Air Base [CLOSED]

Public forecast

Using degrees Celsius for public forecast. Weather courtesy of forecast.io.

Closest aviation weather report (METAR) to Karankut Air Base

Closest report is Anapa Vityazevo Airport, 134.0 nm (248.2 km) ESE.

2024/06/22 11:00 (retrieved 37 minutes ago)

URKA 221100Z 33006MPS 300V010 9999 SCT/// 27/15 Q1012 R03/010070 NOSIG RMK QFE755/1007

Closest aviation forecast (TAF) to Karankut Air Base

Closest forecast is Anapa Vityazevo Airport, 134.0 nm (248.2 km) ESE.

2024/06/22 09:21 (retrieved 2 hours ago)

TAF TAF URKA 220752Z 2209/2309 36006G12MPS 9999 SCT030 BECMG 2216/2218 05003G08MPS